createdAt,value
2022-12-26T00:01:02.601Z,9.10
2022-12-26T00:03:31.281Z,9.10
2022-12-26T00:06:00.582Z,9.40
2022-12-26T00:08:28.598Z,9.00
2022-12-26T00:10:56.619Z,9.70
2022-12-26T00:13:39.305Z,10.10
2022-12-26T00:16:10.845Z,9.00
2022-12-26T00:18:39.457Z,9.00
2022-12-26T00:21:09.882Z,10.70
2022-12-26T00:23:38.579Z,9.00
2022-12-26T00:26:08.480Z,10.00
2022-12-26T00:28:36.469Z,9.00
2022-12-26T00:31:06.154Z,8.90
2022-12-26T00:33:35.337Z,9.30
2022-12-26T00:36:04.099Z,9.00
2022-12-26T00:38:33.467Z,9.00
2022-12-26T00:41:01.421Z,9.00
2022-12-26T00:43:29.324Z,9.00
2022-12-26T00:45:58.491Z,9.20
2022-12-26T00:48:26.648Z,9.00
2022-12-26T00:50:54.560Z,8.90
2022-12-26T00:53:22.956Z,9.20
2022-12-26T00:55:52.643Z,8.80
2022-12-26T00:58:21.412Z,8.80
2022-12-26T01:00:49.752Z,8.30
2022-12-26T01:03:18.409Z,8.90
2022-12-26T01:05:48.937Z,8.80
2022-12-26T01:08:21.059Z,8.80
2022-12-26T01:10:54.206Z,8.80
2022-12-26T01:13:22.443Z,9.60
2022-12-26T01:15:51.660Z,8.80
2022-12-26T01:18:20.239Z,8.70
2022-12-26T01:20:48.431Z,9.10
2022-12-26T01:23:17.000Z,8.70
2022-12-26T01:26:16.652Z,9.40
2022-12-26T01:28:34.759Z,9.10
2022-12-26T01:31:03.665Z,8.70
2022-12-26T01:33:31.913Z,10.20
2022-12-26T01:36:00.301Z,8.60
2022-12-26T01:38:28.434Z,8.50
2022-12-26T01:41:10.281Z,8.60
2022-12-26T01:44:07.602Z,9.20
2022-12-26T01:46:39.443Z,8.50
2022-12-26T01:49:14.047Z,10.50
2022-12-26T01:51:45.446Z,8.40
2022-12-26T01:54:39.736Z,8.40
2022-12-26T01:57:05.692Z,8.40
2022-12-26T01:59:38.337Z,10.20
2022-12-26T02:02:07.070Z,10.20
2022-12-26T02:04:56.863Z,8.40
2022-12-26T02:07:25.383Z,9.40
2022-12-26T02:09:53.697Z,8.40
2022-12-26T02:12:34.205Z,9.00
2022-12-26T02:15:11.185Z,8.70
2022-12-26T02:17:39.251Z,8.40
2022-12-26T02:20:17.425Z,8.50
2022-12-26T02:23:13.378Z,8.40
2022-12-26T02:26:17.838Z,7.70
2022-12-26T02:29:12.361Z,8.50
2022-12-26T02:31:47.528Z,8.50
2022-12-26T02:34:19.556Z,8.50
2022-12-26T02:37:21.829Z,10.00
2022-12-26T02:40:04.279Z,8.60
2022-12-26T02:42:40.250Z,8.60
2022-12-26T02:45:37.009Z,8.70
2022-12-26T02:48:13.445Z,10.50
2022-12-26T02:51:12.392Z,8.70
2022-12-26T02:54:05.020Z,8.30
2022-12-26T02:56:55.014Z,8.70
2022-12-26T02:59:55.842Z,8.70
2022-12-26T03:02:47.527Z,9.00
2022-12-26T03:05:39.840Z,8.70
2022-12-26T03:08:28.335Z,8.80
2022-12-26T03:11:16.474Z,8.80
2022-12-26T03:13:46.368Z,8.70
2022-12-26T03:16:34.269Z,8.70
2022-12-26T03:19:06.912Z,8.60
2022-12-26T03:21:41.503Z,8.60
2022-12-26T03:24:11.959Z,8.50
2022-12-26T03:26:47.419Z,8.50
2022-12-26T03:29:35.028Z,8.50
2022-12-26T03:32:05.344Z,8.20
2022-12-26T03:34:33.656Z,8.60
2022-12-26T03:37:49.750Z,8.60
2022-12-26T03:40:43.579Z,8.60
2022-12-26T03:43:38.159Z,9.20
2022-12-26T03:46:34.482Z,8.60
2022-12-26T03:49:26.805Z,7.60
2022-12-26T03:52:18.735Z,8.50
2022-12-26T03:55:12.814Z,8.50
2022-12-26T03:58:07.817Z,8.40
2022-12-26T04:00:55.171Z,8.50
2022-12-26T04:03:42.520Z,8.40
2022-12-26T04:06:36.878Z,8.40
2022-12-26T04:09:29.833Z,8.40
2022-12-26T04:12:19.748Z,8.40
2022-12-26T04:15:10.293Z,8.40
2022-12-26T04:18:12.456Z,8.50
2022-12-26T04:20:53.858Z,8.40
2022-12-26T04:23:46.237Z,8.50
2022-12-26T04:26:35.595Z,8.50
2022-12-26T04:29:22.328Z,8.50
2022-12-26T04:32:14.281Z,8.50
2022-12-26T04:35:08.272Z,8.50
2022-12-26T04:37:58.258Z,10.20
2022-12-26T04:40:47.733Z,8.60
2022-12-26T04:43:47.484Z,8.50
2022-12-26T04:46:21.638Z,8.50
2022-12-26T04:49:09.216Z,8.60
2022-12-26T04:51:37.541Z,8.50
2022-12-26T04:54:06.213Z,9.70
2022-12-26T04:56:34.168Z,8.60
2022-12-26T04:59:02.066Z,8.60
2022-12-26T05:01:48.733Z,7.90
2022-12-26T05:04:35.053Z,8.00
2022-12-26T05:07:22.529Z,8.50
2022-12-26T05:09:52.700Z,8.40
2022-12-26T05:12:21.576Z,8.40
2022-12-26T05:14:49.638Z,8.30
2022-12-26T05:17:36.702Z,8.30
2022-12-26T05:20:23.161Z,8.10
2022-12-26T05:23:08.923Z,8.30
2022-12-26T05:25:58.271Z,8.30
2022-12-26T05:28:44.357Z,8.20
2022-12-26T05:31:13.971Z,8.30
2022-12-26T05:34:01.377Z,7.90
2022-12-26T05:36:32.138Z,8.20
2022-12-26T05:39:00.603Z,8.20
2022-12-26T05:41:28.754Z,8.10
2022-12-26T05:43:56.649Z,8.10
2022-12-26T05:46:24.643Z,8.00
2022-12-26T05:48:53.988Z,8.00
2022-12-26T05:51:21.928Z,8.10
2022-12-26T05:53:50.073Z,8.10
2022-12-26T05:56:19.817Z,8.50
2022-12-26T05:58:48.395Z,8.20
2022-12-26T06:01:18.379Z,8.20
2022-12-26T06:03:48.583Z,8.40
2022-12-26T06:06:18.288Z,8.10
2022-12-26T06:08:48.890Z,8.30
2022-12-26T06:11:17.630Z,8.20
2022-12-26T06:13:45.792Z,9.00
2022-12-26T06:16:16.341Z,8.20
2022-12-26T06:18:44.627Z,8.20
2022-12-26T06:21:15.444Z,8.20
2022-12-26T06:23:45.062Z,8.10
2022-12-26T06:26:13.016Z,8.00
2022-12-26T06:28:41.828Z,8.70
2022-12-26T06:31:11.582Z,8.00
2022-12-26T06:33:39.669Z,8.00
2022-12-26T06:36:09.822Z,7.90
2022-12-26T06:38:38.078Z,7.90
2022-12-26T06:41:08.265Z,7.50
2022-12-26T06:43:36.511Z,7.90
2022-12-26T06:46:07.022Z,7.90
2022-12-26T06:48:39.196Z,7.80
2022-12-26T06:51:08.360Z,7.80
2022-12-26T06:53:36.422Z,7.80
2022-12-26T06:56:10.395Z,7.70
2022-12-26T06:58:38.609Z,7.80
2022-12-26T07:01:07.466Z,7.80
2022-12-26T07:03:35.760Z,7.80
2022-12-26T07:06:05.406Z,7.80
2022-12-26T07:08:34.377Z,7.80
2022-12-26T07:11:02.314Z,7.80
2022-12-26T07:13:31.550Z,7.80
2022-12-26T07:16:00.752Z,7.80
2022-12-26T07:18:28.858Z,7.80
2022-12-26T07:20:56.739Z,7.80
2022-12-26T07:23:24.719Z,7.70
2022-12-26T07:25:52.617Z,7.80
2022-12-26T07:28:20.528Z,7.80
2022-12-26T07:30:51.044Z,7.80
2022-12-26T07:33:19.004Z,7.80
2022-12-26T07:35:46.957Z,7.70
2022-12-26T07:38:15.136Z,7.70
2022-12-26T07:40:43.077Z,7.70
2022-12-26T07:43:11.045Z,7.70
2022-12-26T07:45:45.100Z,7.50
2022-12-26T07:48:15.244Z,7.60
2022-12-26T07:50:46.983Z,7.70
2022-12-26T07:53:15.401Z,8.00
2022-12-26T07:55:43.588Z,7.80
2022-12-26T07:58:11.490Z,7.70
2022-12-26T08:00:39.385Z,7.90
2022-12-26T08:03:08.370Z,7.80
2022-12-26T08:05:37.867Z,7.90
2022-12-26T08:08:05.995Z,7.90
2022-12-26T08:10:33.951Z,7.90
2022-12-26T08:13:01.833Z,7.90
2022-12-26T08:15:29.724Z,8.00
2022-12-26T08:17:57.647Z,8.00
2022-12-26T08:20:25.615Z,7.80
2022-12-26T08:25:27.721Z,8.00
2022-12-26T08:27:55.632Z,8.30
2022-12-26T08:30:23.655Z,8.00
2022-12-26T08:32:52.169Z,8.00
2022-12-26T08:35:20.075Z,8.10
2022-12-26T08:37:48.624Z,8.00
2022-12-26T08:40:26.742Z,8.20
2022-12-26T08:43:29.854Z,8.20
2022-12-26T08:46:01.289Z,8.20
2022-12-26T08:48:29.530Z,8.30
2022-12-26T08:50:59.247Z,8.20
2022-12-26T08:53:29.012Z,8.30
2022-12-26T08:55:58.334Z,8.40
2022-12-26T08:58:26.986Z,8.40
2022-12-26T09:00:55.773Z,8.40
2022-12-26T09:03:24.466Z,8.50
2022-12-26T09:05:52.433Z,9.00
2022-12-26T09:08:20.304Z,8.50
2022-12-26T09:10:48.197Z,8.60
2022-12-26T09:13:19.649Z,8.60
2022-12-26T09:15:47.824Z,8.60
2022-12-26T09:18:16.062Z,8.80
2022-12-26T09:20:44.032Z,8.70
2022-12-26T09:23:12.567Z,8.70
2022-12-26T09:25:40.817Z,8.70
2022-12-26T09:28:09.624Z,8.70
2022-12-26T09:30:39.610Z,9.00
2022-12-26T09:33:08.489Z,9.10
2022-12-26T09:35:36.404Z,9.10
2022-12-26T09:38:04.246Z,9.50
2022-12-26T09:40:43.833Z,9.20
2022-12-26T09:43:22.110Z,9.30
2022-12-26T09:46:00.597Z,9.30
2022-12-26T09:48:35.725Z,9.40
2022-12-26T09:51:04.295Z,9.20
2022-12-26T09:53:36.904Z,9.40
2022-12-26T09:56:10.880Z,9.40
2022-12-26T09:58:51.103Z,9.40
2022-12-26T10:01:23.675Z,9.40
2022-12-26T10:03:54.583Z,9.40
2022-12-26T10:06:24.196Z,9.40
2022-12-26T10:09:21.676Z,9.40
2022-12-26T10:12:10.937Z,9.40
2022-12-26T10:14:44.411Z,9.30
2022-12-26T10:17:20.309Z,9.30
2022-12-26T10:20:05.962Z,9.30
2022-12-26T10:23:01.618Z,9.20
2022-12-26T10:25:39.742Z,9.20
2022-12-26T10:28:16.548Z,9.20
2022-12-26T10:30:45.792Z,9.20
2022-12-26T10:33:19.632Z,9.20
2022-12-26T10:35:48.754Z,9.30
2022-12-26T10:38:27.880Z,9.30
2022-12-26T10:41:00.862Z,9.30
2022-12-26T10:43:32.398Z,9.30
2022-12-26T10:46:32.064Z,9.30
2022-12-26T10:49:01.455Z,9.30
2022-12-26T10:51:29.584Z,9.30
2022-12-26T10:53:57.569Z,9.80
2022-12-26T10:56:27.889Z,9.30
2022-12-26T10:59:04.540Z,9.30
2022-12-26T11:01:35.584Z,9.40
2022-12-26T11:04:07.797Z,9.40
2022-12-26T11:06:42.376Z,9.40
2022-12-26T11:09:28.536Z,9.80
2022-12-26T11:11:56.681Z,9.70
2022-12-26T11:14:37.454Z,9.70
2022-12-26T11:17:08.735Z,9.80
2022-12-26T11:19:42.227Z,9.90
2022-12-26T11:22:32.866Z,9.90
2022-12-26T11:25:13.134Z,9.90
2022-12-26T11:27:43.067Z,9.90
2022-12-26T11:30:28.253Z,10.00
2022-12-26T11:33:20.053Z,10.00
2022-12-26T11:35:53.657Z,10.00
2022-12-26T11:38:45.013Z,10.00
2022-12-26T11:41:33.527Z,9.90
2022-12-26T11:44:06.395Z,9.90
2022-12-26T11:46:38.734Z,10.00
2022-12-26T11:49:07.625Z,10.00
2022-12-26T11:51:43.557Z,10.00
2022-12-26T11:54:25.008Z,10.00
2022-12-26T11:57:03.820Z,10.00
2022-12-26T11:59:35.183Z,10.50
2022-12-26T12:02:25.907Z,11.30
2022-12-26T12:04:58.259Z,10.30
2022-12-26T12:07:57.316Z,10.30
2022-12-26T12:10:47.827Z,10.30
2022-12-26T12:13:26.337Z,10.40
2022-12-26T12:16:01.428Z,10.50
2022-12-26T12:18:41.437Z,10.50
2022-12-26T12:21:17.999Z,10.60
2022-12-26T12:24:02.634Z,10.70
2022-12-26T12:26:38.475Z,10.70
2022-12-26T12:29:21.109Z,10.70
2022-12-26T12:32:08.540Z,10.70
2022-12-26T12:35:02.282Z,10.80
2022-12-26T12:37:39.726Z,10.80
2022-12-26T12:40:28.966Z,10.80
2022-12-26T12:43:05.294Z,10.80
2022-12-26T12:45:36.435Z,10.80
2022-12-26T12:48:25.964Z,10.60
2022-12-26T12:51:03.628Z,10.80
2022-12-26T12:53:51.449Z,12.60
2022-12-26T12:56:29.051Z,10.70
2022-12-26T12:59:08.070Z,10.70
2022-12-26T13:01:41.927Z,10.60
2022-12-26T13:04:15.363Z,10.60
2022-12-26T13:06:46.478Z,10.20
2022-12-26T13:09:19.797Z,10.20
2022-12-26T13:11:54.147Z,10.10
2022-12-26T13:14:25.284Z,10.10
2022-12-26T13:16:57.296Z,9.80
2022-12-26T13:19:28.394Z,9.70
2022-12-26T13:22:01.600Z,9.60
2022-12-26T13:24:33.944Z,9.50
2022-12-26T13:27:07.812Z,11.00
2022-12-26T13:29:39.067Z,9.40
2022-12-26T13:32:21.871Z,9.30
2022-12-26T13:34:51.706Z,9.10
2022-12-26T13:37:53.976Z,9.20
2022-12-26T13:40:25.289Z,9.10
2022-12-26T13:43:15.454Z,9.00
2022-12-26T13:45:53.991Z,8.90
2022-12-26T13:49:08.064Z,8.80
2022-12-26T13:52:00.023Z,8.70
2022-12-26T13:54:29.949Z,8.60
2022-12-26T13:57:29.676Z,8.40
2022-12-26T14:00:05.460Z,8.30
2022-12-26T14:03:19.643Z,8.20
2022-12-26T14:06:08.285Z,8.00
2022-12-26T14:08:48.501Z,8.70
2022-12-26T14:11:36.080Z,7.70
2022-12-26T14:14:17.184Z,7.60
2022-12-26T14:16:54.767Z,6.80
2022-12-26T14:19:37.921Z,7.30
2022-12-26T14:22:13.335Z,7.20
2022-12-26T14:24:51.799Z,7.10
2022-12-26T14:27:36.437Z,6.80
2022-12-26T14:30:21.341Z,7.00
2022-12-26T14:33:01.733Z,7.80
2022-12-26T14:35:36.218Z,6.90
2022-12-26T14:38:20.053Z,6.90
2022-12-26T14:41:00.982Z,6.80
2022-12-26T14:43:34.309Z,7.20
2022-12-26T14:46:04.390Z,6.80
2022-12-26T14:48:52.140Z,6.70
2022-12-26T14:51:47.318Z,6.60
2022-12-26T14:54:38.972Z,6.60
2022-12-26T14:57:46.737Z,6.50
2022-12-26T15:00:26.095Z,6.40
2022-12-26T15:03:25.289Z,6.30
2022-12-26T15:06:05.582Z,6.20
2022-12-26T15:08:55.060Z,6.20
2022-12-26T15:11:51.061Z,7.50
2022-12-26T15:15:05.204Z,6.20
2022-12-26T15:17:42.271Z,5.90
2022-12-26T15:21:01.258Z,5.80
2022-12-26T15:23:54.161Z,5.80
2022-12-26T15:26:59.396Z,6.50
2022-12-26T15:29:52.511Z,5.70
2022-12-26T15:32:30.757Z,6.20
2022-12-26T15:35:07.273Z,6.00
2022-12-26T15:37:59.658Z,5.70
2022-12-26T15:40:32.278Z,5.70
2022-12-26T15:43:26.686Z,5.40
2022-12-26T15:46:01.445Z,5.30
2022-12-26T15:48:42.602Z,6.00
2022-12-26T15:51:14.152Z,6.30
2022-12-26T15:53:59.374Z,5.10
2022-12-26T15:56:52.299Z,5.10
2022-12-26T15:59:52.740Z,5.10
2022-12-26T16:02:38.373Z,5.00
2022-12-26T16:05:27.685Z,5.00
2022-12-26T16:08:04.040Z,5.50
2022-12-26T16:10:35.417Z,5.90
2022-12-26T16:13:17.773Z,4.80
2022-12-26T16:15:48.022Z,4.80
2022-12-26T16:18:17.837Z,4.80
2022-12-26T16:21:16.376Z,4.70
2022-12-26T16:23:46.448Z,6.10
2022-12-26T16:26:22.787Z,3.70
2022-12-26T16:28:51.171Z,4.40
2022-12-26T16:31:22.403Z,4.20
2022-12-26T16:33:52.794Z,4.40
2022-12-26T16:36:22.839Z,4.70
2022-12-26T16:38:51.619Z,5.50
2022-12-26T16:41:22.968Z,6.20
2022-12-26T16:43:52.277Z,5.70
2022-12-26T16:46:23.108Z,4.30
2022-12-26T16:48:55.518Z,4.20
2022-12-26T16:51:40.723Z,4.10
2022-12-26T16:54:17.518Z,3.90
2022-12-26T16:56:49.813Z,3.80
2022-12-26T16:59:20.116Z,4.50
2022-12-26T17:01:51.129Z,3.80
2022-12-26T17:04:22.508Z,5.50
2022-12-26T17:06:54.196Z,5.70
2022-12-26T17:09:24.422Z,3.50
2022-12-26T17:11:56.801Z,3.50
2022-12-26T17:14:28.329Z,3.60
2022-12-26T17:17:00.724Z,3.70
2022-12-26T17:19:30.231Z,4.30
2022-12-26T17:22:29.507Z,4.40
2022-12-26T17:25:20.337Z,3.60
2022-12-26T17:28:10.808Z,3.50
2022-12-26T17:30:40.045Z,3.30
2022-12-26T17:33:15.112Z,3.40
2022-12-26T17:36:38.052Z,3.40
2022-12-26T17:38:34.423Z,3.20
2022-12-26T17:41:04.760Z,3.60
2022-12-26T17:43:35.555Z,2.90
2022-12-26T17:46:04.595Z,3.00
2022-12-26T17:48:33.010Z,4.60
2022-12-26T17:51:04.282Z,3.20
2022-12-26T17:53:33.990Z,3.10
2022-12-26T17:56:04.520Z,4.30
2022-12-26T17:58:34.682Z,4.30
2022-12-26T18:01:03.199Z,2.70
2022-12-26T18:03:31.227Z,2.80
2022-12-26T18:05:59.201Z,3.00
2022-12-26T18:08:30.048Z,2.80
2022-12-26T18:10:58.512Z,4.80
2022-12-26T18:13:26.739Z,2.70
2022-12-26T18:15:57.542Z,2.80
2022-12-26T18:18:33.047Z,2.80
2022-12-26T18:21:01.091Z,2.40
2022-12-26T18:23:29.519Z,2.60
2022-12-26T18:26:00.611Z,3.00
2022-12-26T18:28:29.112Z,2.90
2022-12-26T18:30:58.432Z,3.10
2022-12-26T18:33:26.658Z,2.90
2022-12-26T18:35:54.943Z,2.90
2022-12-26T18:38:22.935Z,4.10
2022-12-26T18:40:52.917Z,2.90
2022-12-26T18:43:20.888Z,2.90
2022-12-26T18:45:48.864Z,2.90
2022-12-26T18:48:20.113Z,2.60
2022-12-26T18:50:48.575Z,3.80
2022-12-26T18:53:16.621Z,2.50
2022-12-26T18:55:44.601Z,2.60
2022-12-26T18:58:14.059Z,2.50
2022-12-26T19:00:42.049Z,2.10
2022-12-26T19:03:09.955Z,4.40
2022-12-26T19:05:39.415Z,2.90
2022-12-26T19:08:07.561Z,2.60
2022-12-26T19:10:36.391Z,2.60
2022-12-26T19:13:06.322Z,4.40
2022-12-26T19:15:35.951Z,2.50
2022-12-26T19:18:04.471Z,4.10
2022-12-26T19:20:32.882Z,2.40
2022-12-26T19:23:02.144Z,2.60
2022-12-26T19:25:30.206Z,3.20
2022-12-26T19:27:58.945Z,4.10
2022-12-26T19:30:26.880Z,4.50
2022-12-26T19:32:54.762Z,2.70
2022-12-26T19:35:22.800Z,4.20
2022-12-26T19:37:50.672Z,3.60
2022-12-26T19:40:24.940Z,2.60
2022-12-26T19:42:53.639Z,2.80
2022-12-26T19:45:21.723Z,2.70
2022-12-26T19:47:49.609Z,2.80
2022-12-26T19:50:17.597Z,2.70
2022-12-26T19:52:45.504Z,2.80
2022-12-26T19:55:13.444Z,2.80
2022-12-26T19:57:42.709Z,2.80
2022-12-26T20:00:12.004Z,2.80
2022-12-26T20:02:40.412Z,2.80
2022-12-26T20:05:09.790Z,2.90
2022-12-26T20:07:38.013Z,2.80
2022-12-26T20:10:06.764Z,2.80
2022-12-26T20:12:34.719Z,2.80
2022-12-26T20:15:04.024Z,2.60
2022-12-26T20:17:31.924Z,2.50
2022-12-26T20:19:59.874Z,3.90
2022-12-26T20:22:28.063Z,4.60
2022-12-26T20:24:55.965Z,2.40
2022-12-26T20:27:23.949Z,2.80
2022-12-26T20:29:51.816Z,2.80
2022-12-26T20:32:21.061Z,2.40
2022-12-26T20:34:48.963Z,2.50
2022-12-26T20:37:18.044Z,2.80
2022-12-26T20:39:46.131Z,4.20
2022-12-26T20:42:16.917Z,2.40
2022-12-26T20:44:45.033Z,3.50
2022-12-26T20:47:12.933Z,2.70
2022-12-26T20:49:42.236Z,2.70
2022-12-26T20:52:10.179Z,2.50
2022-12-26T20:54:38.116Z,2.70
2022-12-26T20:57:06.014Z,2.50
2022-12-26T20:59:33.906Z,2.60
2022-12-26T21:02:02.103Z,2.70
2022-12-26T21:04:30.122Z,2.60
2022-12-26T21:06:59.472Z,2.80
2022-12-26T21:09:27.363Z,3.00
2022-12-26T21:11:55.224Z,2.90
2022-12-26T21:14:23.714Z,2.60
2022-12-26T21:16:53.486Z,4.70
2022-12-26T21:19:22.120Z,2.90
2022-12-26T21:21:52.056Z,2.70
2022-12-26T21:24:23.654Z,2.60
2022-12-26T21:26:51.574Z,2.80
2022-12-26T21:29:22.220Z,2.40
2022-12-26T21:31:50.855Z,2.80
2022-12-26T21:34:20.827Z,2.70
2022-12-26T21:37:02.669Z,2.70
2022-12-26T21:39:32.841Z,2.70
2022-12-26T21:42:00.961Z,2.60
2022-12-26T21:44:29.460Z,4.40
2022-12-26T21:46:57.405Z,2.60
2022-12-26T21:49:25.343Z,2.10
2022-12-26T21:51:53.242Z,4.30
2022-12-26T21:54:42.188Z,4.70
2022-12-26T21:57:15.937Z,2.30
2022-12-26T21:59:59.495Z,2.70
2022-12-26T22:02:47.462Z,2.30
2022-12-26T22:05:16.235Z,2.30
2022-12-26T22:07:44.192Z,3.20
2022-12-26T22:10:34.444Z,2.80
2022-12-26T22:13:03.436Z,2.80
2022-12-26T22:15:49.114Z,2.90
2022-12-26T22:18:17.099Z,2.40
2022-12-26T22:20:45.962Z,2.90
2022-12-26T22:23:15.015Z,2.50
2022-12-26T22:25:42.948Z,2.50
2022-12-26T22:28:12.248Z,3.10
2022-12-26T22:30:46.723Z,2.70
2022-12-26T22:33:14.664Z,5.20
2022-12-26T22:35:42.531Z,2.90
2022-12-26T22:38:10.436Z,2.90
2022-12-26T22:40:38.529Z,2.50
2022-12-26T22:43:06.451Z,4.30
2022-12-26T22:45:39.886Z,2.20
2022-12-26T22:48:07.857Z,2.80
2022-12-26T22:50:35.739Z,2.50
2022-12-26T22:53:03.963Z,2.20
2022-12-26T22:55:32.510Z,2.20
2022-12-26T22:58:02.283Z,2.60
2022-12-26T23:00:30.509Z,2.70
2022-12-26T23:02:59.809Z,2.50
2022-12-26T23:05:28.262Z,2.50
2022-12-26T23:07:56.586Z,2.60
2022-12-26T23:10:25.186Z,2.60
2022-12-26T23:12:53.584Z,2.60
2022-12-26T23:15:24.512Z,2.60
2022-12-26T23:18:15.230Z,2.70
2022-12-26T23:21:02.442Z,3.60
2022-12-26T23:23:30.796Z,2.50
2022-12-26T23:26:00.694Z,2.40
2022-12-26T23:28:46.179Z,2.40
2022-12-26T23:31:14.042Z,2.40
2022-12-26T23:33:42.002Z,1.90
2022-12-26T23:36:11.346Z,2.40
2022-12-26T23:38:39.343Z,2.10
2022-12-26T23:41:07.286Z,4.50
2022-12-26T23:43:35.237Z,2.30
2022-12-26T23:46:03.147Z,2.20
2022-12-26T23:48:34.351Z,1.60
2022-12-26T23:51:03.212Z,2.30
2022-12-26T23:53:32.477Z,4.30
2022-12-26T23:56:00.433Z,4.20
2022-12-26T23:58:29.360Z,3.80
